Terminal Aerodrome Forecast
Issued by NWS

Home | Current Version | Previous Version | Text Only | Print | Product List | Glossary On
Versions: 1 2 3 4 5 6 7 8 9 10 11 12 13 14 15
000
FTUS46 KPDT 050528
TAFRDM
TAF
KRDM 050528Z 0506/0606 27006KT P6SM VCSH FEW060 OVC080
     FM050900 17004KT P6SM VCSH SCT035 SCT045
     FM051400 VRB05KT P6SM SCT035
     FM051900 33010G17KT P6SM SCT050
     FM060300 32006KT P6SM FEW050 SCT150=

USA.gov is the U.S. government's official web portal to all federal, state and local government web resources and services.